createdAt,value
2023-05-01T00:01:06.401Z,100.00
2023-05-01T00:03:36.488Z,100.00
2023-05-01T00:06:08.275Z,100.00
2023-05-01T00:08:39.340Z,100.00
2023-05-01T00:11:11.711Z,100.00
2023-05-01T00:13:41.263Z,100.00
2023-05-01T00:16:11.422Z,100.00
2023-05-01T00:18:41.519Z,100.00
2023-05-01T00:21:11.197Z,100.00
2023-05-01T00:23:41.969Z,100.00
2023-05-01T00:26:11.352Z,100.00
2023-05-01T00:28:40.885Z,100.00
2023-05-01T00:31:10.501Z,100.00
2023-05-01T00:33:40.739Z,100.00
2023-05-01T00:36:10.852Z,100.00
2023-05-01T00:38:41.959Z,100.00
2023-05-01T00:41:11.355Z,100.00
2023-05-01T00:43:40.810Z,100.00
2023-05-01T00:46:11.484Z,100.00
2023-05-01T00:49:52.321Z,100.00
2023-05-01T00:52:21.665Z,100.00
2023-05-01T00:54:52.446Z,100.00
2023-05-01T00:57:23.213Z,100.00
2023-05-01T00:59:52.791Z,100.00
2023-05-01T01:02:22.790Z,100.00
2023-05-01T01:04:54.004Z,100.00
2023-05-01T01:07:43.617Z,100.00
2023-05-01T01:10:25.242Z,100.00
2023-05-01T01:13:10.993Z,100.00
2023-05-01T01:15:49.582Z,100.00
2023-05-01T01:18:25.750Z,100.00
2023-05-01T01:21:07.052Z,100.00
2023-05-01T01:24:25.686Z,100.00
2023-05-01T01:27:36.928Z,100.00
2023-05-01T01:30:49.182Z,100.00
2023-05-01T01:33:51.883Z,100.00
2023-05-01T01:36:27.454Z,100.00
2023-05-01T01:39:11.698Z,100.00
2023-05-01T01:41:42.926Z,100.00
2023-05-01T01:44:21.464Z,100.00
2023-05-01T01:46:54.382Z,100.00
2023-05-01T01:49:29.100Z,100.00
2023-05-01T01:52:01.982Z,100.00
2023-05-01T01:54:37.240Z,100.00
2023-05-01T01:57:09.893Z,100.00
2023-05-01T01:59:39.299Z,100.00
2023-05-01T02:02:10.409Z,100.00
2023-05-01T02:04:44.827Z,100.00
2023-05-01T02:07:16.530Z,100.00
2023-05-01T02:09:48.542Z,100.00
2023-05-01T02:12:19.678Z,100.00
2023-05-01T02:14:51.768Z,100.00
2023-05-01T02:17:22.968Z,100.00
2023-05-01T02:19:55.589Z,100.00
2023-05-01T02:22:25.998Z,100.00
2023-05-01T02:24:56.842Z,100.00
2023-05-01T02:27:31.481Z,100.00
2023-05-01T02:30:00.923Z,100.00
2023-05-01T02:32:30.399Z,100.00
2023-05-01T02:35:01.695Z,100.00
2023-05-01T02:37:31.422Z,100.00
2023-05-01T02:40:02.156Z,100.00
2023-05-01T02:42:32.493Z,100.00
2023-05-01T02:45:07.115Z,100.00
2023-05-01T02:47:40.919Z,100.00
2023-05-01T02:50:13.765Z,100.00
2023-05-01T02:52:43.840Z,100.00
2023-05-01T02:55:14.923Z,100.00
2023-05-01T02:57:44.409Z,100.00
2023-05-01T03:00:15.424Z,100.00
2023-05-01T03:02:44.942Z,100.00
2023-05-01T03:05:15.874Z,100.00
2023-05-01T03:07:45.264Z,100.00
2023-05-01T03:10:15.030Z,100.00
2023-05-01T03:12:44.582Z,100.00
2023-05-01T03:15:14.253Z,100.00
2023-05-01T03:17:43.835Z,100.00
2023-05-01T03:20:16.401Z,100.00
2023-05-01T03:22:46.063Z,100.00
2023-05-01T03:25:15.732Z,100.00
2023-05-01T03:27:45.367Z,100.00
2023-05-01T03:30:15.254Z,100.00
2023-05-01T03:32:44.929Z,100.00
2023-05-01T03:35:16.055Z,100.00
2023-05-01T03:37:45.510Z,100.00
2023-05-01T03:40:15.695Z,100.00
2023-05-01T03:42:45.197Z,100.00
2023-05-01T03:45:14.618Z,100.00
2023-05-01T03:50:50.889Z,100.00
2023-05-01T03:53:20.638Z,100.00
2023-05-01T03:55:50.576Z,100.00
2023-05-01T03:58:22.044Z,100.00
2023-05-01T04:00:51.384Z,100.00
2023-05-01T04:03:20.852Z,100.00
2023-05-01T04:05:51.878Z,100.00
2023-05-01T04:08:21.313Z,100.00
2023-05-01T04:10:50.890Z,100.00
2023-05-01T04:13:20.405Z,100.00
2023-05-01T04:15:49.874Z,100.00
2023-05-01T04:18:19.488Z,100.00
2023-05-01T04:20:50.523Z,100.00
2023-05-01T04:23:21.414Z,100.00
2023-05-01T04:25:51.850Z,100.00
2023-05-01T04:28:21.342Z,100.00
2023-05-01T04:30:51.001Z,100.00
2023-05-01T04:33:20.464Z,100.00
2023-05-01T04:35:51.347Z,100.00
2023-05-01T04:38:20.926Z,100.00
2023-05-01T04:40:50.430Z,100.00
2023-05-01T04:43:19.794Z,100.00
2023-05-01T04:45:50.008Z,100.00
2023-05-01T04:48:19.485Z,100.00
2023-05-01T04:50:50.409Z,100.00
2023-05-01T04:53:19.841Z,100.00
2023-05-01T04:55:49.328Z,100.00
2023-05-01T04:58:18.749Z,100.00
2023-05-01T05:00:48.319Z,100.00
2023-05-01T05:03:20.091Z,100.00
2023-05-01T05:05:51.164Z,100.00
2023-05-01T05:08:20.630Z,100.00
2023-05-01T05:10:50.115Z,100.00
2023-05-01T05:13:19.529Z,100.00
2023-05-01T05:15:49.028Z,100.00
2023-05-01T05:18:18.697Z,100.00
2023-05-01T05:20:50.562Z,100.00
2023-05-01T05:23:19.954Z,100.00
2023-05-01T05:25:49.412Z,100.00
2023-05-01T05:28:18.664Z,100.00
2023-05-01T05:30:48.277Z,100.00
2023-05-01T05:33:17.720Z,100.00
2023-05-01T05:35:47.331Z,100.00
2023-05-01T05:38:18.237Z,100.00
2023-05-01T05:40:47.802Z,100.00
2023-05-01T05:43:17.245Z,100.00
2023-05-01T05:45:46.699Z,100.00
2023-05-01T05:48:16.187Z,100.00
2023-05-01T05:50:46.030Z,99.51
2023-05-01T05:53:16.955Z,98.01
2023-05-01T05:55:46.823Z,97.54
2023-05-01T05:58:20.149Z,94.60
2023-05-01T06:00:50.372Z,91.07
2023-05-01T06:03:20.075Z,88.54
2023-05-01T06:05:50.255Z,86.34
2023-05-01T06:08:22.293Z,84.76
2023-05-01T06:10:51.693Z,89.57
2023-05-01T06:13:21.313Z,86.99
2023-05-01T06:15:50.831Z,86.49
2023-05-01T06:18:20.453Z,87.16
2023-05-01T06:20:50.168Z,87.31
2023-05-01T06:23:21.134Z,86.99
2023-05-01T06:25:50.690Z,88.62
2023-05-01T06:28:20.328Z,87.62
2023-05-01T06:30:49.837Z,85.21
2023-05-01T06:33:19.230Z,83.69
2023-05-01T06:35:48.701Z,84.11
2023-05-01T06:38:19.637Z,81.93
2023-05-01T06:40:51.663Z,81.53
2023-05-01T06:43:21.154Z,78.52
2023-05-01T06:45:50.515Z,77.25
2023-05-01T06:50:50.708Z,73.57
2023-05-01T06:53:20.235Z,78.68
2023-05-01T06:55:49.564Z,80.30
2023-05-01T06:58:24.159Z,80.08
2023-05-01T07:00:56.138Z,78.68
2023-05-01T07:03:27.874Z,78.08
2023-05-01T07:05:58.710Z,78.71
2023-05-01T07:08:28.962Z,77.87
2023-05-01T07:10:58.761Z,76.68
2023-05-01T07:13:28.418Z,74.96
2023-05-01T07:15:58.011Z,73.53
2023-05-01T07:18:27.479Z,74.71
2023-05-01T07:20:58.882Z,73.73
2023-05-01T07:23:28.468Z,74.74
2023-05-01T07:25:58.035Z,73.06
2023-05-01T07:28:27.689Z,72.14
2023-05-01T07:30:57.379Z,71.40
2023-05-01T07:33:27.186Z,70.57
2023-05-01T07:35:58.290Z,71.26
2023-05-01T07:38:27.939Z,72.29
2023-05-01T07:40:57.498Z,74.49
2023-05-01T07:43:26.908Z,74.37
2023-05-01T07:46:00.657Z,74.65
2023-05-01T07:48:32.038Z,75.27
2023-05-01T07:51:06.296Z,75.50
2023-05-01T07:53:35.801Z,77.14
2023-05-01T07:56:09.652Z,77.07
2023-05-01T07:58:41.204Z,77.31
2023-05-01T08:01:11.121Z,75.89
2023-05-01T08:03:40.891Z,78.04
2023-05-01T08:06:11.968Z,78.68
2023-05-01T08:08:41.561Z,78.00
2023-05-01T08:11:11.498Z,77.34
2023-05-01T08:13:41.092Z,77.58
2023-05-01T08:16:10.632Z,79.18
2023-05-01T08:18:40.108Z,80.18
2023-05-01T08:21:10.984Z,81.15
2023-05-01T08:23:40.666Z,81.16
2023-05-01T08:26:10.183Z,79.54
2023-05-01T08:28:39.807Z,79.65
2023-05-01T08:31:09.448Z,80.17
2023-05-01T08:33:42.070Z,80.99
2023-05-01T08:36:13.960Z,81.65
2023-05-01T08:38:43.528Z,82.09
2023-05-01T08:41:18.060Z,81.92
2023-05-01T08:43:47.818Z,83.15
2023-05-01T08:46:30.834Z,82.44
2023-05-01T08:49:03.020Z,82.64
2023-05-01T08:51:36.375Z,83.54
2023-05-01T08:54:08.559Z,83.86
2023-05-01T08:56:38.695Z,83.15
2023-05-01T08:59:09.073Z,83.61
2023-05-01T09:01:39.700Z,83.85
2023-05-01T09:04:10.513Z,82.78
2023-05-01T09:06:41.847Z,83.47
2023-05-01T09:09:11.334Z,82.99
2023-05-01T09:11:40.800Z,83.51
2023-05-01T09:14:10.280Z,84.26
2023-05-01T09:16:39.942Z,85.41
2023-05-01T09:19:09.378Z,84.95
2023-05-01T09:21:40.392Z,83.78
2023-05-01T09:24:09.823Z,84.14
2023-05-01T09:26:43.408Z,84.79
2023-05-01T09:29:14.691Z,84.61
2023-05-01T09:31:44.331Z,82.90
2023-05-01T09:34:13.897Z,82.34
2023-05-01T09:36:48.733Z,81.60
2023-05-01T09:39:25.580Z,81.92
2023-05-01T09:41:55.208Z,83.44
2023-05-01T09:44:25.818Z,84.53
2023-05-01T09:46:55.536Z,85.64
2023-05-01T09:50:50.573Z,85.29
2023-05-01T09:53:20.003Z,84.02
2023-05-01T09:56:03.446Z,83.72
2023-05-01T09:58:32.859Z,83.77
2023-05-01T10:01:02.518Z,83.22
2023-05-01T10:03:32.139Z,83.24
2023-05-01T10:06:04.521Z,81.71
2023-05-01T10:08:48.268Z,84.11
2023-05-01T10:11:18.204Z,84.42
2023-05-01T10:13:47.662Z,83.60
2023-05-01T10:16:32.669Z,83.57
2023-05-01T10:19:04.549Z,83.62
2023-05-01T10:21:36.624Z,83.85
2023-05-01T10:24:08.033Z,84.25
2023-05-01T10:26:38.200Z,83.21
2023-05-01T10:29:07.560Z,84.12
2023-05-01T10:31:38.692Z,87.02
2023-05-01T10:34:09.344Z,88.66
2023-05-01T10:36:46.420Z,91.17
2023-05-01T10:39:33.933Z,93.30
2023-05-01T10:42:05.353Z,94.72
2023-05-01T10:44:36.304Z,95.85
2023-05-01T10:47:48.936Z,96.06
2023-05-01T10:50:18.982Z,97.13
2023-05-01T10:53:20.528Z,98.83
2023-05-01T10:55:51.504Z,100.00
2023-05-01T11:10:52.986Z,100.00
2023-05-01T11:14:00.965Z,100.00
2023-05-01T11:16:49.727Z,100.00
2023-05-01T11:19:52.761Z,100.00
2023-05-01T11:22:22.398Z,97.73
2023-05-01T11:24:51.914Z,96.98
2023-05-01T11:27:24.308Z,94.12
2023-05-01T11:29:54.852Z,94.23
2023-05-01T11:32:30.348Z,94.84
2023-05-01T11:35:00.621Z,89.19
2023-05-01T11:37:44.544Z,89.38
2023-05-01T11:40:25.378Z,88.52
2023-05-01T11:43:05.343Z,83.87
2023-05-01T11:45:37.094Z,85.36
2023-05-01T11:48:07.723Z,81.60
2023-05-01T11:50:39.156Z,80.87
2023-05-01T11:53:16.083Z,73.86
2023-05-01T11:55:46.697Z,77.19
2023-05-01T11:58:18.158Z,79.09
2023-05-01T12:00:47.551Z,77.01
2023-05-01T12:03:17.851Z,76.44
2023-05-01T12:05:47.822Z,76.28
2023-05-01T12:08:19.938Z,74.41
2023-05-01T12:10:52.157Z,74.96
2023-05-01T12:13:23.496Z,72.10
2023-05-01T12:15:55.465Z,72.25
2023-05-01T12:18:25.506Z,72.29
2023-05-01T12:20:57.148Z,71.41
2023-05-01T12:23:35.063Z,67.67
2023-05-01T12:26:04.622Z,66.99
2023-05-01T12:28:35.584Z,65.00
2023-05-01T12:31:05.743Z,66.75
2023-05-01T12:33:35.349Z,66.79
2023-05-01T12:36:13.044Z,64.36
2023-05-01T12:38:43.053Z,65.33
2023-05-01T12:41:13.544Z,65.70
2023-05-01T12:43:44.575Z,66.26
2023-05-01T12:46:18.072Z,66.77
2023-05-01T12:50:55.056Z,64.99
2023-05-01T12:53:26.100Z,63.74
2023-05-01T12:55:57.288Z,66.56
2023-05-01T12:58:37.480Z,67.06
2023-05-01T13:01:07.576Z,69.01
2023-05-01T13:03:40.185Z,68.71
2023-05-01T13:06:17.084Z,67.88
2023-05-01T13:08:46.617Z,70.57
2023-05-01T13:11:17.944Z,70.75
2023-05-01T13:13:48.524Z,72.95
2023-05-01T13:16:20.522Z,72.05
2023-05-01T13:18:51.887Z,70.46
2023-05-01T13:21:24.960Z,67.99
2023-05-01T13:23:57.164Z,65.33
2023-05-01T13:26:31.705Z,66.84
2023-05-01T13:29:03.380Z,65.63
2023-05-01T13:31:33.455Z,62.75
2023-05-01T13:34:03.459Z,64.93
2023-05-01T13:36:35.483Z,64.98
2023-05-01T13:39:05.341Z,62.61
2023-05-01T13:41:35.631Z,59.85
2023-05-01T13:44:05.976Z,59.87
2023-05-01T13:46:35.768Z,62.34
2023-05-01T13:49:09.503Z,63.77
2023-05-01T13:51:44.922Z,64.56
2023-05-01T13:54:15.362Z,61.60
2023-05-01T13:56:44.710Z,64.44
2023-05-01T13:59:14.112Z,64.39
2023-05-01T14:01:46.717Z,64.17
2023-05-01T14:04:21.450Z,66.46
2023-05-01T14:06:52.566Z,63.40
2023-05-01T14:09:22.391Z,65.98
2023-05-01T14:11:53.394Z,67.41
2023-05-01T14:14:22.973Z,69.84
2023-05-01T14:16:54.388Z,64.70
2023-05-01T14:19:24.075Z,68.29
2023-05-01T14:21:54.961Z,69.33
2023-05-01T14:24:24.374Z,69.04
2023-05-01T14:26:53.828Z,69.44
2023-05-01T14:29:30.191Z,69.60
2023-05-01T14:32:05.435Z,68.82
2023-05-01T14:34:35.090Z,67.91
2023-05-01T14:37:05.911Z,68.10
2023-05-01T14:39:35.542Z,66.61
2023-05-01T14:42:05.912Z,66.93
2023-05-01T14:44:35.625Z,67.20
2023-05-01T14:47:05.196Z,68.25
2023-05-01T14:49:34.624Z,69.01
2023-05-01T14:52:06.935Z,70.48
2023-05-01T14:54:48.665Z,71.51
2023-05-01T14:57:18.285Z,71.65
2023-05-01T14:59:47.800Z,72.64
2023-05-01T15:02:17.429Z,73.28
2023-05-01T15:04:46.943Z,74.73
2023-05-01T15:07:18.048Z,73.68
2023-05-01T15:09:47.744Z,74.59
2023-05-01T15:12:17.171Z,74.93
2023-05-01T15:14:46.688Z,74.45
2023-05-01T15:17:16.349Z,75.39
2023-05-01T15:19:45.909Z,75.43
2023-05-01T15:22:16.805Z,76.40
2023-05-01T15:24:46.305Z,75.57
2023-05-01T15:27:15.891Z,76.51
2023-05-01T15:29:45.373Z,76.15
2023-05-01T15:32:15.000Z,75.81
2023-05-01T15:34:44.508Z,75.29
2023-05-01T15:37:13.952Z,75.69
2023-05-01T15:39:44.954Z,77.30
2023-05-01T15:42:14.432Z,78.53
2023-05-01T15:44:43.981Z,79.04
2023-05-01T15:47:14.834Z,80.80
2023-05-01T15:50:50.416Z,82.28
2023-05-01T15:53:21.230Z,82.26
2023-05-01T15:55:51.263Z,81.00
2023-05-01T15:58:21.020Z,79.29
2023-05-01T16:00:50.846Z,78.19
2023-05-01T16:03:20.680Z,77.14
2023-05-01T16:05:51.759Z,76.85
2023-05-01T16:08:21.326Z,76.72
2023-05-01T16:10:51.308Z,76.61
2023-05-01T16:13:20.864Z,76.49
2023-05-01T16:15:50.281Z,76.75
2023-05-01T16:18:23.841Z,76.34
2023-05-01T16:20:55.549Z,76.72
2023-05-01T16:23:27.947Z,77.47
2023-05-01T16:25:57.280Z,79.74
2023-05-01T16:28:27.564Z,80.69
2023-05-01T16:30:57.413Z,81.27
2023-05-01T16:33:26.792Z,82.50
2023-05-01T16:35:59.752Z,83.03
2023-05-01T16:38:29.258Z,83.94
2023-05-01T16:40:58.907Z,84.14
2023-05-01T16:43:28.536Z,84.67
2023-05-01T16:46:00.258Z,84.83
2023-05-01T16:48:30.306Z,85.04
2023-05-01T16:51:01.411Z,85.26
2023-05-01T16:53:32.295Z,85.68
2023-05-01T16:56:01.919Z,86.52
2023-05-01T16:58:31.183Z,86.91
2023-05-01T17:01:00.855Z,87.24
2023-05-01T17:03:30.976Z,87.98
2023-05-01T17:06:01.822Z,87.78
2023-05-01T17:08:31.158Z,88.68
2023-05-01T17:11:01.184Z,89.80
2023-05-01T17:13:31.272Z,89.12
2023-05-01T17:16:01.101Z,89.80
2023-05-01T17:18:30.516Z,90.18
2023-05-01T17:21:01.626Z,91.11
2023-05-01T17:23:31.118Z,91.75
2023-05-01T17:26:01.155Z,91.85
2023-05-01T17:28:30.538Z,92.31
2023-05-01T17:30:59.902Z,92.87
2023-05-01T17:33:32.446Z,93.35
2023-05-01T17:36:03.095Z,93.78
2023-05-01T17:38:32.500Z,94.31
2023-05-01T17:41:02.076Z,94.54
2023-05-01T17:43:31.474Z,94.62
2023-05-01T17:46:00.977Z,94.79
2023-05-01T17:48:30.316Z,95.13
2023-05-01T17:50:59.717Z,95.07
2023-05-01T17:53:30.803Z,95.25
2023-05-01T17:56:00.437Z,95.44
2023-05-01T17:58:29.882Z,95.64
2023-05-01T18:00:59.252Z,95.34
2023-05-01T18:03:28.941Z,95.68
2023-05-01T18:05:58.787Z,95.57
2023-05-01T18:08:29.816Z,95.55
2023-05-01T18:10:59.266Z,95.79
2023-05-01T18:13:30.267Z,96.26
2023-05-01T18:15:59.762Z,96.01
2023-05-01T18:18:29.219Z,96.64
2023-05-01T18:20:58.774Z,96.69
2023-05-01T18:23:29.781Z,97.07
2023-05-01T18:25:59.511Z,97.07
2023-05-01T18:28:29.101Z,96.78
2023-05-01T18:30:58.613Z,97.38
2023-05-01T18:33:28.421Z,97.01
2023-05-01T18:35:57.889Z,97.36
2023-05-01T18:38:28.477Z,97.33
2023-05-01T18:40:59.597Z,98.41
2023-05-01T18:43:28.981Z,98.12
2023-05-01T18:45:58.885Z,98.04
2023-05-01T18:51:06.799Z,98.20
2023-05-01T18:53:37.674Z,97.94
2023-05-01T18:56:09.643Z,98.27
2023-05-01T18:58:40.076Z,98.71
2023-05-01T19:01:09.613Z,98.95
2023-05-01T19:03:39.089Z,99.01
2023-05-01T19:06:10.737Z,99.05
2023-05-01T19:08:40.170Z,99.18
2023-05-01T19:11:09.592Z,99.25
2023-05-01T19:13:39.630Z,99.47
2023-05-01T19:16:09.167Z,99.55
2023-05-01T19:18:39.196Z,99.23
2023-05-01T19:21:11.322Z,99.36
2023-05-01T19:23:41.694Z,99.76
2023-05-01T19:26:13.175Z,100.00
2023-05-01T19:28:44.187Z,100.00
2023-05-01T19:31:14.661Z,100.00
2023-05-01T19:33:44.384Z,100.00
2023-05-01T19:36:15.378Z,100.00
2023-05-01T19:38:45.620Z,100.00
2023-05-01T19:41:15.281Z,100.00
2023-05-01T19:43:44.818Z,100.00
2023-05-01T19:46:14.360Z,100.00
2023-05-01T19:48:44.782Z,100.00
2023-05-01T19:51:15.864Z,100.00
2023-05-01T19:53:45.341Z,100.00
2023-05-01T19:56:14.854Z,100.00
2023-05-01T19:58:44.408Z,100.00
2023-05-01T20:01:14.005Z,100.00
2023-05-01T20:03:43.909Z,100.00
2023-05-01T20:06:15.128Z,100.00
2023-05-01T20:08:44.550Z,100.00
2023-05-01T20:11:14.516Z,100.00
2023-05-01T20:13:45.666Z,100.00
2023-05-01T20:16:15.218Z,100.00
2023-05-01T20:18:45.640Z,100.00
2023-05-01T20:21:16.786Z,100.00
2023-05-01T20:23:46.459Z,100.00
2023-05-01T20:26:17.778Z,100.00
2023-05-01T20:28:47.806Z,100.00
2023-05-01T20:31:17.498Z,100.00
2023-05-01T20:33:47.307Z,100.00
2023-05-01T20:36:18.633Z,100.00
2023-05-01T20:38:48.890Z,100.00
2023-05-01T20:41:18.288Z,100.00
2023-05-01T20:43:47.917Z,100.00
2023-05-01T20:46:17.653Z,100.00
2023-05-01T20:48:47.723Z,100.00
2023-05-01T20:51:18.829Z,100.00
2023-05-01T20:53:48.728Z,100.00
2023-05-01T20:56:18.141Z,100.00
2023-05-01T20:58:48.178Z,100.00
2023-05-01T21:01:17.739Z,100.00
2023-05-01T21:03:47.308Z,100.00
2023-05-01T21:06:18.370Z,100.00
2023-05-01T21:08:48.607Z,100.00
2023-05-01T21:11:18.080Z,100.00
2023-05-01T21:13:47.446Z,100.00
2023-05-01T21:16:17.767Z,100.00
2023-05-01T21:18:47.191Z,100.00
2023-05-01T21:21:18.903Z,100.00
2023-05-01T21:23:50.220Z,100.00
2023-05-01T21:26:19.890Z,100.00
2023-05-01T21:28:49.379Z,100.00
2023-05-01T21:31:18.932Z,100.00
2023-05-01T21:33:48.397Z,100.00
2023-05-01T21:36:21.019Z,100.00
2023-05-01T21:38:50.467Z,100.00
2023-05-01T21:41:19.868Z,100.00
2023-05-01T21:43:49.221Z,100.00
2023-05-01T21:46:20.756Z,100.00
2023-05-01T21:50:52.249Z,100.00
2023-05-01T21:53:21.538Z,100.00
2023-05-01T21:55:51.253Z,100.00
2023-05-01T21:58:20.608Z,100.00
2023-05-01T22:00:50.276Z,100.00
2023-05-01T22:03:20.596Z,100.00
2023-05-01T22:05:51.643Z,100.00
2023-05-01T22:08:21.201Z,100.00
2023-05-01T22:10:50.643Z,100.00
2023-05-01T22:13:19.993Z,100.00
2023-05-01T22:15:49.546Z,100.00
2023-05-01T22:18:19.873Z,100.00
2023-05-01T22:20:50.866Z,100.00
2023-05-01T22:23:20.126Z,100.00
2023-05-01T22:25:49.725Z,100.00
2023-05-01T22:28:20.908Z,100.00
2023-05-01T22:30:50.373Z,100.00
2023-05-01T22:33:19.794Z,100.00
2023-05-01T22:35:50.700Z,100.00
2023-05-01T22:38:20.054Z,100.00
2023-05-01T22:40:49.429Z,100.00
2023-05-01T22:43:19.021Z,100.00
2023-05-01T22:45:48.506Z,100.00
2023-05-01T22:48:17.982Z,100.00
2023-05-01T22:50:47.429Z,100.00
2023-05-01T22:53:18.312Z,100.00
2023-05-01T22:55:47.812Z,100.00
2023-05-01T22:58:17.301Z,100.00
2023-05-01T23:00:46.994Z,100.00
2023-05-01T23:03:16.484Z,100.00
2023-05-01T23:05:46.071Z,100.00
2023-05-01T23:08:18.404Z,100.00
2023-05-01T23:10:47.780Z,100.00
2023-05-01T23:13:23.732Z,100.00
2023-05-01T23:15:53.440Z,100.00
2023-05-01T23:18:26.702Z,100.00
2023-05-01T23:20:56.122Z,100.00
2023-05-01T23:23:32.112Z,100.00
2023-05-01T23:26:01.696Z,100.00
2023-05-01T23:28:31.380Z,100.00
2023-05-01T23:31:02.769Z,100.00
2023-05-01T23:33:38.106Z,100.00
2023-05-01T23:36:12.721Z,100.00
2023-05-01T23:38:43.482Z,100.00
2023-05-01T23:41:13.078Z,100.00
2023-05-01T23:43:42.796Z,100.00
2023-05-01T23:46:12.584Z,100.00
2023-05-01T23:48:43.455Z,100.00
2023-05-01T23:51:13.103Z,100.00
2023-05-01T23:53:44.015Z,100.00
2023-05-01T23:56:13.449Z,100.00
2023-05-01T23:58:42.799Z,100.00
